createdAt,value
2023-05-14T00:01:54.399Z,101734.35
2023-05-14T00:04:21.437Z,101734.88
2023-05-14T00:06:48.487Z,101738.50
2023-05-14T00:09:15.427Z,101738.67
2023-05-14T00:11:42.580Z,101743.33
2023-05-14T00:14:09.545Z,101749.04
2023-05-14T00:16:36.742Z,101750.06
2023-05-14T00:19:03.993Z,101752.83
2023-05-14T00:21:32.034Z,101752.48
2023-05-14T00:23:59.139Z,101751.11
2023-05-14T00:26:26.092Z,101754.56
2023-05-14T00:28:53.034Z,101754.05
2023-05-14T00:31:20.007Z,101748.85
2023-05-14T00:33:46.974Z,101746.61
2023-05-14T00:36:13.966Z,101747.82
2023-05-14T00:38:40.832Z,101751.61
2023-05-14T00:41:08.264Z,101751.60
2023-05-14T00:43:35.837Z,101756.44
2023-05-14T00:46:02.972Z,101759.37
2023-05-14T00:48:30.223Z,101758.85
2023-05-14T00:50:57.703Z,101756.77
2023-05-14T00:53:26.976Z,101752.11
2023-05-14T00:55:54.031Z,101752.97
2023-05-14T00:58:20.970Z,101754.70
2023-05-14T01:00:48.484Z,101756.77
2023-05-14T01:03:16.076Z,101751.23
2023-05-14T01:06:18.552Z,101749.16
2023-05-14T01:09:07.640Z,101751.05
2023-05-14T01:12:00.010Z,101762.46
2023-05-14T01:15:09.302Z,101770.93
2023-05-14T01:17:41.603Z,101773.88
2023-05-14T01:20:09.435Z,101769.55
2023-05-14T01:22:36.919Z,101770.42
2023-05-14T01:25:05.600Z,101767.14
2023-05-14T01:27:36.520Z,101764.56
2023-05-14T01:30:06.837Z,101767.83
2023-05-14T01:32:33.799Z,101767.64
2023-05-14T01:35:00.744Z,101769.36
2023-05-14T01:37:28.713Z,101765.73
2023-05-14T01:39:56.152Z,101762.59
2023-05-14T01:42:23.355Z,101762.58
2023-05-14T01:44:50.471Z,101769.84
2023-05-14T01:47:17.399Z,101770.52
2023-05-14T01:49:44.337Z,101771.56
2023-05-14T01:52:12.197Z,101764.83
2023-05-14T01:54:39.148Z,101765.34
2023-05-14T01:57:06.096Z,101763.59
2023-05-14T01:59:33.035Z,101758.40
2023-05-14T02:01:59.923Z,101758.21
2023-05-14T02:04:27.083Z,101755.11
2023-05-14T02:06:54.275Z,101753.02
2023-05-14T02:09:24.498Z,101746.64
2023-05-14T02:11:51.445Z,101750.63
2023-05-14T02:14:18.490Z,101750.81
2023-05-14T02:16:45.451Z,101749.27
2023-05-14T02:19:12.503Z,101745.66
2023-05-14T02:21:39.523Z,101743.77
2023-05-14T02:24:06.793Z,101740.47
2023-05-14T02:26:33.729Z,101736.34
2023-05-14T02:29:00.772Z,101730.80
2023-05-14T02:31:27.868Z,101719.39
2023-05-14T02:33:54.861Z,101708.67
2023-05-14T02:36:21.916Z,101697.94
2023-05-14T02:38:48.953Z,101686.02
2023-05-14T02:41:15.834Z,101669.77
2023-05-14T02:43:42.742Z,101658.55
2023-05-14T02:46:09.794Z,101647.66
2023-05-14T02:48:36.738Z,101644.05
2023-05-14T02:51:04.038Z,101647.52
2023-05-14T02:53:31.251Z,101655.84
2023-05-14T02:55:58.801Z,101669.84
2023-05-14T02:58:28.206Z,101679.36
2023-05-14T03:00:56.206Z,101690.75
2023-05-14T03:03:23.881Z,101695.44
2023-05-14T03:05:52.142Z,101698.36
2023-05-14T03:08:19.267Z,101708.73
2023-05-14T03:10:46.202Z,101716.16
2023-05-14T03:13:14.685Z,101719.43
2023-05-14T03:15:42.254Z,101730.33
2023-05-14T03:18:09.317Z,101735.67
2023-05-14T03:20:36.328Z,101739.67
2023-05-14T03:23:03.788Z,101745.20
2023-05-14T03:25:30.728Z,101752.27
2023-05-14T03:27:59.013Z,101754.34
2023-05-14T03:30:26.407Z,101758.30
2023-05-14T03:32:53.622Z,101762.09
2023-05-14T03:35:20.778Z,101766.56
2023-05-14T03:37:47.703Z,101771.21
2023-05-14T03:40:14.654Z,101770.84
2023-05-14T03:42:43.543Z,101773.86
2023-05-14T03:45:10.908Z,101771.52
2023-05-14T03:47:38.093Z,101776.96
2023-05-14T03:50:07.285Z,101781.84
2023-05-14T03:52:34.180Z,101775.52
2023-05-14T03:55:02.781Z,101766.39
2023-05-14T03:57:29.815Z,101734.67
2023-05-14T03:59:56.782Z,101679.78
2023-05-14T04:02:23.755Z,101544.75
2023-05-14T04:04:50.798Z,101329.77
2023-05-14T04:07:20.257Z,101149.14
2023-05-14T04:09:47.299Z,101016.35
2023-05-14T04:12:14.346Z,100973.20
2023-05-14T04:14:41.309Z,100973.11
2023-05-14T04:17:08.235Z,100992.20
2023-05-14T04:19:35.187Z,101014.98
2023-05-14T04:22:03.353Z,101040.41
2023-05-14T04:24:30.398Z,101063.38
2023-05-14T04:26:57.344Z,101086.54
2023-05-14T04:29:24.292Z,101114.96
2023-05-14T04:31:51.181Z,101147.02
2023-05-14T04:34:18.172Z,101179.56
2023-05-14T04:36:45.120Z,101195.21
2023-05-14T04:39:12.780Z,101210.13
2023-05-14T04:41:39.725Z,101212.89
2023-05-14T04:44:07.280Z,101241.18
2023-05-14T04:46:34.419Z,101263.86
2023-05-14T04:49:01.578Z,101259.16
2023-05-14T04:51:28.642Z,101256.52
2023-05-14T04:53:55.675Z,101270.31
2023-05-14T04:56:22.631Z,101291.04
2023-05-14T04:58:49.558Z,101295.08
2023-05-14T05:01:16.675Z,101295.43
2023-05-14T05:03:43.647Z,101298.05
2023-05-14T05:06:10.704Z,101306.02
2023-05-14T05:08:37.958Z,101316.49
2023-05-14T05:11:05.306Z,101316.15
2023-05-14T05:13:32.463Z,101330.77
2023-05-14T05:15:59.545Z,101326.63
2023-05-14T05:18:26.628Z,101322.73
2023-05-14T05:20:53.709Z,101327.80
2023-05-14T05:23:20.570Z,101335.81
2023-05-14T05:25:48.115Z,101330.33
2023-05-14T05:28:15.154Z,101327.27
2023-05-14T05:30:42.201Z,101320.66
2023-05-14T05:33:09.172Z,101325.31
2023-05-14T05:35:36.114Z,101332.96
2023-05-14T05:38:03.445Z,101332.35
2023-05-14T05:40:30.484Z,101335.52
2023-05-14T05:42:57.440Z,101313.58
2023-05-14T05:45:24.375Z,101349.64
2023-05-14T05:47:51.584Z,101358.06
2023-05-14T05:51:44.591Z,101360.86
2023-05-14T05:54:11.557Z,101348.45
2023-05-14T05:56:38.500Z,101332.45
2023-05-14T05:59:05.538Z,101352.73
2023-05-14T06:01:32.772Z,101307.12
2023-05-14T06:03:59.723Z,101273.73
2023-05-14T06:06:26.579Z,101274.88
2023-05-14T06:08:53.604Z,101271.60
2023-05-14T06:11:21.991Z,101245.30
2023-05-14T06:13:49.270Z,101233.50
2023-05-14T06:16:16.313Z,101206.02
2023-05-14T06:18:43.326Z,101184.91
2023-05-14T06:21:10.386Z,101261.85
2023-05-14T06:23:37.321Z,101247.40
2023-05-14T06:26:04.368Z,101206.77
2023-05-14T06:28:31.314Z,101259.39
2023-05-14T06:30:58.162Z,101211.41
2023-05-14T06:33:31.241Z,101262.39
2023-05-14T06:35:59.562Z,101214.30
2023-05-14T06:38:26.976Z,101150.23
2023-05-14T06:40:53.935Z,101175.77
2023-05-14T06:43:21.066Z,101125.98
2023-05-14T06:45:52.314Z,101080.42
2023-05-14T06:48:19.839Z,101059.07
2023-05-14T06:50:47.940Z,101146.95
2023-05-14T06:53:15.519Z,101201.73
2023-05-14T06:55:42.547Z,101171.10
2023-05-14T06:58:09.721Z,101160.02
2023-05-14T07:00:36.844Z,101042.61
2023-05-14T07:03:04.031Z,101043.46
2023-05-14T07:05:31.044Z,101001.92
2023-05-14T07:07:57.984Z,101038.94
2023-05-14T07:10:25.458Z,101144.64
2023-05-14T07:12:52.553Z,101097.93
2023-05-14T07:15:19.664Z,101056.63
2023-05-14T07:17:46.720Z,101075.63
2023-05-14T07:20:13.740Z,100979.10
2023-05-14T07:22:40.682Z,100982.06
2023-05-14T07:25:08.237Z,100920.18
2023-05-14T07:27:35.189Z,100956.39
2023-05-14T07:30:02.158Z,100903.45
2023-05-14T07:32:29.073Z,100879.70
2023-05-14T07:34:56.114Z,100806.86
2023-05-14T07:37:24.154Z,100847.30
2023-05-14T07:39:51.843Z,100834.33
2023-05-14T07:42:31.886Z,100932.88
2023-05-14T07:45:02.732Z,100880.01
2023-05-14T07:47:29.792Z,100852.48
2023-05-14T07:49:57.445Z,100845.36
2023-05-14T07:52:24.910Z,100794.91
2023-05-14T07:54:52.161Z,100717.78
2023-05-14T07:57:19.960Z,100673.80
2023-05-14T07:59:48.117Z,100721.36
2023-05-14T08:02:17.040Z,100817.91
2023-05-14T08:04:44.428Z,100901.10
2023-05-14T08:07:11.377Z,100843.73
2023-05-14T08:09:38.345Z,100860.10
2023-05-14T08:12:06.190Z,100792.34
2023-05-14T08:14:33.440Z,100752.42
2023-05-14T08:17:00.496Z,100710.15
2023-05-14T08:19:27.944Z,100572.87
2023-05-14T08:21:54.989Z,100535.72
2023-05-14T08:24:21.933Z,100539.73
2023-05-14T08:26:48.857Z,100623.84
2023-05-14T08:29:16.777Z,100609.70
2023-05-14T08:31:44.135Z,100321.93
2023-05-14T08:34:11.144Z,100270.81
2023-05-14T08:36:39.055Z,100325.20
2023-05-14T08:39:07.951Z,100282.64
2023-05-14T08:41:35.236Z,99999.30
2023-05-14T08:44:15.306Z,99814.58
2023-05-14T08:46:42.251Z,99706.65
2023-05-14T08:49:22.812Z,99568.79
2023-05-14T08:51:50.079Z,99498.78
2023-05-14T08:54:19.871Z,99573.15
2023-05-14T08:56:46.912Z,99471.73
2023-05-14T08:59:13.884Z,99415.59
2023-05-14T09:01:44.757Z,99383.05
2023-05-14T09:04:11.869Z,99455.28
2023-05-14T09:06:38.952Z,99250.98
2023-05-14T09:09:06.154Z,99406.09
2023-05-14T09:11:33.090Z,99364.91
2023-05-14T09:13:59.985Z,99286.66
2023-05-14T09:16:27.079Z,99307.39
2023-05-14T09:18:54.651Z,99460.95
2023-05-14T09:21:21.684Z,99499.40
2023-05-14T09:23:49.959Z,99346.64
2023-05-14T09:26:17.965Z,99393.62
2023-05-14T09:28:44.972Z,99417.77
2023-05-14T09:31:12.572Z,99424.65
2023-05-14T09:33:39.584Z,99242.59
2023-05-14T09:36:07.445Z,98955.33
2023-05-14T09:38:34.387Z,98879.20
2023-05-14T09:41:01.310Z,98942.48
2023-05-14T09:43:28.580Z,98991.67
2023-05-14T09:45:56.142Z,98965.38
2023-05-14T09:48:23.178Z,99214.40
2023-05-14T09:50:51.728Z,99314.80
2023-05-14T09:53:18.820Z,99043.77
2023-05-14T09:55:45.764Z,98988.16
2023-05-14T09:58:14.667Z,98882.46
2023-05-14T10:00:45.612Z,98998.31
2023-05-14T10:03:15.199Z,98988.52
2023-05-14T10:05:43.069Z,98986.72
2023-05-14T10:08:14.857Z,98962.64
2023-05-14T10:10:41.971Z,99059.31
2023-05-14T10:13:13.745Z,98972.02
2023-05-14T10:15:43.784Z,98827.02
2023-05-14T10:18:12.359Z,98838.86
2023-05-14T10:20:41.212Z,98896.77
2023-05-14T10:23:08.369Z,98909.20
2023-05-14T10:25:35.717Z,98789.64
2023-05-14T10:28:02.763Z,98789.73
2023-05-14T10:30:29.711Z,98853.09
2023-05-14T10:33:10.058Z,98892.13
2023-05-14T10:36:05.992Z,98809.06
2023-05-14T10:38:36.937Z,98796.30
2023-05-14T10:41:18.190Z,98813.37
2023-05-14T10:43:45.262Z,98859.92
2023-05-14T10:46:13.929Z,98845.20
2023-05-14T10:48:44.196Z,98962.02
2023-05-14T10:51:12.346Z,99044.45
2023-05-14T10:53:41.287Z,99076.42
2023-05-14T10:56:11.969Z,98883.23
2023-05-14T10:58:43.238Z,98936.20
2023-05-14T11:01:12.400Z,98958.31
2023-05-14T11:03:46.608Z,98912.65
2023-05-14T11:06:15.733Z,98806.81
2023-05-14T11:08:43.039Z,98904.98
2023-05-14T11:11:10.622Z,98955.90
2023-05-14T11:13:37.690Z,98857.46
2023-05-14T11:16:18.988Z,98937.83
2023-05-14T11:18:54.935Z,98902.19
2023-05-14T11:21:22.103Z,98905.53
2023-05-14T11:23:49.120Z,98871.62
2023-05-14T11:26:16.336Z,98932.88
2023-05-14T11:28:43.603Z,98948.45
2023-05-14T11:31:10.595Z,98900.07
2023-05-14T11:33:37.591Z,98861.95
2023-05-14T11:36:05.364Z,98840.35
2023-05-14T11:38:32.310Z,98769.45
2023-05-14T11:40:59.718Z,98723.90
2023-05-14T11:43:29.590Z,98755.27
2023-05-14T11:45:57.909Z,98639.27
2023-05-14T11:48:24.899Z,98631.59
2023-05-14T11:50:53.181Z,98481.02
2023-05-14T11:53:29.044Z,98601.67
2023-05-14T11:55:57.948Z,98520.77
2023-05-14T11:58:25.059Z,98651.44
2023-05-14T12:00:52.851Z,98753.16
2023-05-14T12:03:26.916Z,98731.49
2023-05-14T12:05:58.899Z,98612.50
2023-05-14T12:08:30.114Z,98711.96
2023-05-14T12:10:58.763Z,98782.73
2023-05-14T12:13:32.638Z,98730.02
2023-05-14T12:16:02.532Z,98603.16
2023-05-14T12:18:31.399Z,98640.84
2023-05-14T12:21:03.296Z,98722.65
2023-05-14T12:23:30.479Z,98751.96
2023-05-14T12:26:06.819Z,98780.12
2023-05-14T12:28:36.855Z,98836.39
2023-05-14T12:31:05.227Z,98777.75
2023-05-14T12:33:32.242Z,98720.77
2023-05-14T12:36:19.738Z,98796.38
2023-05-14T12:38:49.479Z,98909.56
2023-05-14T12:41:18.382Z,98958.15
2023-05-14T12:43:45.520Z,98987.86
2023-05-14T12:46:12.876Z,99064.23
2023-05-14T12:48:39.732Z,99152.86
2023-05-14T12:51:07.223Z,99188.49
2023-05-14T12:53:35.444Z,99240.38
2023-05-14T12:56:02.568Z,99316.52
2023-05-14T12:58:29.549Z,99357.95
2023-05-14T13:00:56.829Z,99389.46
2023-05-14T13:03:24.225Z,99388.73
2023-05-14T13:05:52.674Z,99376.72
2023-05-14T13:08:21.636Z,99363.70
2023-05-14T13:10:48.666Z,99280.36
2023-05-14T13:13:16.121Z,99208.35
2023-05-14T13:15:43.166Z,99297.71
2023-05-14T13:18:10.560Z,99313.04
2023-05-14T13:20:37.534Z,99247.10
2023-05-14T13:23:04.509Z,99219.65
2023-05-14T13:25:31.453Z,99308.98
2023-05-14T13:27:58.337Z,99414.99
2023-05-14T13:30:25.454Z,99486.68
2023-05-14T13:32:52.406Z,99564.88
2023-05-14T13:35:19.534Z,99669.09
2023-05-14T13:37:47.095Z,99762.91
2023-05-14T13:40:13.963Z,99831.27
2023-05-14T13:42:41.106Z,99894.53
2023-05-14T13:45:08.757Z,99892.77
2023-05-14T13:47:36.152Z,99932.49
2023-05-14T13:50:03.277Z,99918.05
2023-05-14T13:52:30.192Z,99937.48
2023-05-14T13:54:57.134Z,99950.85
2023-05-14T13:57:24.289Z,99949.05
2023-05-14T13:59:51.336Z,100002.54
2023-05-14T14:02:18.282Z,99970.15
2023-05-14T14:04:45.457Z,99933.16
2023-05-14T14:07:12.411Z,99982.17
2023-05-14T14:09:39.422Z,99982.07
2023-05-14T14:12:07.256Z,99935.21
2023-05-14T14:14:34.330Z,99957.58
2023-05-14T14:17:01.288Z,99963.48
2023-05-14T14:19:28.226Z,99946.23
2023-05-14T14:21:55.177Z,99949.42
2023-05-14T14:24:22.038Z,99979.52
2023-05-14T14:26:49.360Z,100025.65
2023-05-14T14:29:16.407Z,100061.41
2023-05-14T14:31:43.830Z,100085.30
2023-05-14T14:34:11.117Z,100108.02
2023-05-14T14:36:38.080Z,100121.10
2023-05-14T14:39:05.033Z,100308.24
2023-05-14T14:41:31.946Z,100562.96
2023-05-14T14:43:58.891Z,100491.69
2023-05-14T14:46:26.457Z,100384.20
2023-05-14T14:48:53.594Z,100308.61
2023-05-14T14:51:20.643Z,100329.75
2023-05-14T14:53:48.010Z,100391.93
2023-05-14T14:56:15.692Z,100290.83
2023-05-14T14:58:42.617Z,100226.18
2023-05-14T15:01:09.706Z,100151.56
2023-05-14T15:03:36.786Z,100092.73
2023-05-14T15:06:04.593Z,100120.40
2023-05-14T15:08:31.610Z,100083.14
2023-05-14T15:11:00.117Z,100029.52
2023-05-14T15:13:28.476Z,100003.39
2023-05-14T15:15:55.486Z,100069.16
2023-05-14T15:18:22.954Z,100129.48
2023-05-14T15:20:50.119Z,100177.59
2023-05-14T15:23:17.181Z,100217.49
2023-05-14T15:25:44.423Z,100230.85
2023-05-14T15:28:11.467Z,100264.09
2023-05-14T15:30:38.510Z,100275.14
2023-05-14T15:33:07.779Z,100266.92
2023-05-14T15:35:34.962Z,100193.35
2023-05-14T15:38:01.923Z,100146.63
2023-05-14T15:40:28.958Z,100141.17
2023-05-14T15:42:55.876Z,100200.05
2023-05-14T15:45:22.938Z,100250.63
2023-05-14T15:47:50.010Z,100263.28
2023-05-14T15:50:17.140Z,100222.74
2023-05-14T15:52:44.024Z,100205.24
2023-05-14T15:55:11.124Z,100175.81
2023-05-14T15:57:38.070Z,100227.63
2023-05-14T16:00:11.569Z,100295.28
2023-05-14T16:02:39.144Z,100363.99
2023-05-14T16:05:07.610Z,100387.73
2023-05-14T16:07:34.656Z,100415.13
2023-05-14T16:10:01.513Z,100417.95
2023-05-14T16:12:28.647Z,100453.27
2023-05-14T16:14:57.795Z,100505.05
2023-05-14T16:17:24.838Z,100535.92
2023-05-14T16:19:53.468Z,100581.17
2023-05-14T16:22:22.353Z,100638.54
2023-05-14T16:24:49.301Z,100662.07
2023-05-14T16:27:18.538Z,100775.69
2023-05-14T16:29:45.562Z,100857.51
2023-05-14T16:32:12.739Z,100938.66
2023-05-14T16:34:39.947Z,101038.27
2023-05-14T16:37:06.886Z,101096.34
2023-05-14T16:39:33.828Z,101169.55
2023-05-14T16:42:01.184Z,101212.35
2023-05-14T16:44:28.150Z,101247.23
2023-05-14T16:46:55.076Z,101261.25
2023-05-14T16:49:23.043Z,101322.43
2023-05-14T16:51:50.000Z,101463.93
2023-05-14T16:54:16.927Z,101631.45
2023-05-14T16:56:48.374Z,101785.59
2023-05-14T16:59:15.988Z,101883.73
2023-05-14T17:01:43.739Z,101990.73
2023-05-14T17:04:10.824Z,102002.30
2023-05-14T17:06:37.739Z,102011.45
2023-05-14T17:09:05.313Z,101953.02
2023-05-14T17:11:32.558Z,101936.21
2023-05-14T17:13:59.556Z,101955.58
2023-05-14T17:16:27.238Z,102065.14
2023-05-14T17:18:54.299Z,102203.25
2023-05-14T17:21:21.606Z,102211.83
2023-05-14T17:23:48.546Z,101973.86
2023-05-14T17:26:15.591Z,101540.71
2023-05-14T17:28:42.538Z,101187.84
2023-05-14T17:31:09.532Z,101058.57
2023-05-14T17:33:36.653Z,100969.54
2023-05-14T17:36:04.183Z,100927.90
2023-05-14T17:38:31.335Z,100922.01
2023-05-14T17:40:59.545Z,100916.92
2023-05-14T17:43:26.549Z,100908.37
2023-05-14T17:45:54.758Z,100894.56
2023-05-14T17:48:23.237Z,100881.98
2023-05-14T17:50:51.752Z,100865.58
2023-05-14T17:53:19.055Z,100862.54
2023-05-14T17:55:46.064Z,100863.80
2023-05-14T17:58:14.684Z,100855.83
2023-05-14T18:00:41.903Z,100839.35
2023-05-14T18:03:09.303Z,100836.92
2023-05-14T18:05:36.439Z,100833.23
2023-05-14T18:09:52.752Z,100814.10
2023-05-14T18:12:19.703Z,100813.38
2023-05-14T18:14:46.647Z,100804.42
2023-05-14T18:17:13.788Z,100799.65
2023-05-14T18:19:43.610Z,100791.23
2023-05-14T18:22:10.609Z,100786.45
2023-05-14T18:24:37.595Z,100798.33
2023-05-14T18:27:04.848Z,100841.09
2023-05-14T18:29:31.790Z,100892.14
2023-05-14T18:31:58.730Z,100942.92
2023-05-14T18:34:25.692Z,100997.83
2023-05-14T18:36:52.717Z,101063.14
2023-05-14T18:39:19.699Z,101126.13
2023-05-14T18:41:46.557Z,101179.04
2023-05-14T18:44:13.762Z,101218.92
2023-05-14T18:46:40.724Z,101250.52
2023-05-14T18:49:07.622Z,101284.33
2023-05-14T18:51:34.602Z,101310.34
2023-05-14T18:54:01.553Z,101332.02
2023-05-14T18:56:28.581Z,101349.53
2023-05-14T18:58:55.528Z,101368.40
2023-05-14T19:01:25.385Z,101400.58
2023-05-14T19:03:53.246Z,101435.73
2023-05-14T19:06:21.068Z,101463.38
2023-05-14T19:08:48.020Z,101493.40
2023-05-14T19:11:16.493Z,101515.51
2023-05-14T19:13:46.740Z,101519.10
2023-05-14T19:16:13.680Z,101523.02
2023-05-14T19:18:40.841Z,101527.64
2023-05-14T19:21:08.186Z,101531.77
2023-05-14T19:23:35.215Z,101529.48
2023-05-14T19:26:04.000Z,101522.66
2023-05-14T19:28:31.036Z,101513.63
2023-05-14T19:30:57.937Z,101506.14
2023-05-14T19:33:26.258Z,101494.53
2023-05-14T19:35:53.197Z,101479.44
2023-05-14T19:38:20.963Z,101470.22
2023-05-14T19:40:47.919Z,101409.47
2023-05-14T19:43:15.171Z,101259.11
2023-05-14T19:45:42.916Z,101055.82
2023-05-14T19:48:10.511Z,100882.31
2023-05-14T19:50:37.837Z,100803.61
2023-05-14T19:53:04.795Z,100777.23
2023-05-14T19:55:31.725Z,100778.41
2023-05-14T19:57:58.668Z,100796.84
2023-05-14T20:00:26.880Z,100815.01
2023-05-14T20:02:54.857Z,100830.61
2023-05-14T20:05:22.167Z,100840.11
2023-05-14T20:07:49.408Z,100847.39
2023-05-14T20:10:16.463Z,100842.02
2023-05-14T20:12:43.508Z,100831.62
2023-05-14T20:15:11.083Z,100801.25
2023-05-14T20:17:38.987Z,100783.95
2023-05-14T20:20:07.115Z,100793.54
2023-05-14T20:22:34.053Z,100807.45
2023-05-14T20:25:00.996Z,100823.85
2023-05-14T20:27:27.940Z,100844.39
2023-05-14T20:29:54.882Z,100877.54
2023-05-14T20:32:25.132Z,100930.73
2023-05-14T20:34:52.358Z,100993.66
2023-05-14T20:37:22.272Z,101049.27
2023-05-14T20:39:49.261Z,101112.27
2023-05-14T20:42:16.263Z,101174.02
2023-05-14T20:44:43.160Z,101203.92
2023-05-14T20:47:09.998Z,101219.29
2023-05-14T20:49:36.991Z,101211.10
2023-05-14T20:52:04.484Z,101187.36
2023-05-14T20:54:31.401Z,101168.98
2023-05-14T20:56:58.248Z,101161.27
2023-05-14T20:59:25.179Z,101170.38
2023-05-14T21:01:52.202Z,101174.64
2023-05-14T21:04:19.492Z,101197.71
2023-05-14T21:06:46.626Z,101232.20
2023-05-14T21:09:13.570Z,101257.65
2023-05-14T21:11:40.510Z,101258.23
2023-05-14T21:14:07.462Z,101248.27
2023-05-14T21:16:34.555Z,101270.42
2023-05-14T21:19:01.603Z,101304.00
2023-05-14T21:21:29.110Z,101331.35
2023-05-14T21:23:56.052Z,101355.92
2023-05-14T21:26:23.715Z,101383.77
2023-05-14T21:28:50.665Z,101407.11
2023-05-14T21:31:17.649Z,101425.28
2023-05-14T21:33:44.648Z,101443.27
2023-05-14T21:36:12.029Z,101462.62
2023-05-14T21:38:39.048Z,101475.25
2023-05-14T21:41:06.098Z,101487.86
2023-05-14T21:43:34.170Z,101493.41
2023-05-14T21:46:01.121Z,101499.27
2023-05-14T21:48:28.527Z,101501.36
2023-05-14T21:50:56.036Z,101508.47
2023-05-14T21:53:23.074Z,101510.55
2023-05-14T21:55:50.113Z,101512.47
2023-05-14T21:58:16.998Z,101510.75
2023-05-14T22:00:44.012Z,101513.70
2023-05-14T22:03:11.596Z,101508.16
2023-05-14T22:05:38.946Z,101502.12
2023-05-14T22:08:06.272Z,101496.09
2023-05-14T22:10:34.748Z,101492.99
2023-05-14T22:13:01.696Z,101490.06
2023-05-14T22:15:28.637Z,101486.63
2023-05-14T22:17:56.103Z,101483.88
2023-05-14T22:20:23.152Z,101482.49
2023-05-14T22:22:50.503Z,101480.08
2023-05-14T22:25:17.644Z,101473.02
2023-05-14T22:27:44.584Z,101468.67
2023-05-14T22:30:12.048Z,101462.81
2023-05-14T22:32:39.135Z,101456.45
2023-05-14T22:35:06.244Z,101453.16
2023-05-14T22:37:33.185Z,101449.20
2023-05-14T22:40:02.279Z,101444.89
2023-05-14T22:42:29.178Z,101443.18
2023-05-14T22:44:56.066Z,101439.54
2023-05-14T22:47:23.037Z,101437.48
2023-05-14T22:49:50.057Z,101435.58
2023-05-14T22:52:18.948Z,101428.17
2023-05-14T22:54:46.814Z,101424.21
2023-05-14T22:57:13.756Z,101419.55
2023-05-14T22:59:40.652Z,101416.29
2023-05-14T23:02:07.569Z,101409.89
2023-05-14T23:04:35.456Z,101405.08
2023-05-14T23:07:02.463Z,101396.97
2023-05-14T23:09:29.613Z,101391.45
2023-05-14T23:11:56.495Z,101391.45
2023-05-14T23:14:23.496Z,101383.19
2023-05-14T23:16:50.454Z,101378.87
2023-05-14T23:19:17.653Z,101379.03
2023-05-14T23:21:44.662Z,101376.45
2023-05-14T23:24:11.683Z,101370.95
2023-05-14T23:26:38.825Z,101368.19
2023-05-14T23:29:06.186Z,101363.52
2023-05-14T23:31:33.346Z,101362.67
2023-05-14T23:34:00.479Z,101361.12
2023-05-14T23:36:27.428Z,101360.77
2023-05-14T23:38:54.377Z,101356.63
2023-05-14T23:41:21.927Z,101355.61
2023-05-14T23:43:49.187Z,101344.05
2023-05-14T23:46:16.358Z,101338.87
2023-05-14T23:48:43.373Z,101332.16
2023-05-14T23:51:10.724Z,101326.30
2023-05-14T23:53:38.080Z,101325.10
2023-05-14T23:56:05.229Z,101323.38
2023-05-14T23:58:33.202Z,101320.27
